sensor_id;sensor_type;location;lat;lon;timestamp;pressure;altitude;pressure_sealevel;temperature;humidity
11347;BME280;5728;42.722;23.258;2023-08-31T00:00:17;94229.16;;;20.72;62.28
11347;BME280;5728;42.722;23.258;2023-08-31T00:02:44;94239.97;;;20.67;62.67
11347;BME280;5728;42.722;23.258;2023-08-31T00:05:11;94235.81;;;20.77;63.06
11347;BME280;5728;42.722;23.258;2023-08-31T00:07:37;94232.19;;;20.38;64.63
11347;BME280;5728;42.722;23.258;2023-08-31T00:10:05;94232.09;;;20.25;65.65
11347;BME280;5728;42.722;23.258;2023-08-31T00:12:35;94237.94;;;20.30;65.92
11347;BME280;5728;42.722;23.258;2023-08-31T00:15:03;94240.84;;;20.40;66.16
11347;BME280;5728;42.722;23.258;2023-08-31T00:17:32;94239.03;;;19.98;67.19
11347;BME280;5728;42.722;23.258;2023-08-31T00:19:59;94236.38;;;20.12;67.58
11347;BME280;5728;42.722;23.258;2023-08-31T00:22:26;94241.78;;;20.24;67.07
11347;BME280;5728;42.722;23.258;2023-08-31T00:24:53;94233.66;;;19.99;68.57
11347;BME280;5728;42.722;23.258;2023-08-31T00:27:20;94247.00;;;19.52;70.78
11347;BME280;5728;42.722;23.258;2023-08-31T00:29:47;94240.22;;;19.78;70.19
11347;BME280;5728;42.722;23.258;2023-08-31T00:32:16;94253.81;;;19.70;70.67
11347;BME280;5728;42.722;23.258;2023-08-31T00:34:44;94253.75;;;19.56;71.22
11347;BME280;5728;42.722;23.258;2023-08-31T00:37:11;94265.75;;;19.46;71.85
11347;BME280;5728;42.722;23.258;2023-08-31T00:39:38;94264.69;;;19.03;72.97
11347;BME280;5728;42.722;23.258;2023-08-31T00:42:05;94262.63;;;19.08;73.10
11347;BME280;5728;42.722;23.258;2023-08-31T00:44:33;94264.53;;;19.36;72.18
11347;BME280;5728;42.722;23.258;2023-08-31T00:47:00;94271.78;;;19.17;72.57
11347;BME280;5728;42.722;23.258;2023-08-31T00:49:27;94266.13;;;19.40;72.22
11347;BME280;5728;42.722;23.258;2023-08-31T00:51:56;94260.09;;;19.38;71.58
11347;BME280;5728;42.722;23.258;2023-08-31T00:54:23;94257.16;;;19.58;71.22
11347;BME280;5728;42.722;23.258;2023-08-31T00:56:52;94253.28;;;19.34;72.44
11347;BME280;5728;42.722;23.258;2023-08-31T00:59:19;94256.28;;;19.13;73.25
11347;BME280;5728;42.722;23.258;2023-08-31T01:01:50;94259.06;;;19.25;73.07
11347;BME280;5728;42.722;23.258;2023-08-31T01:04:21;94260.19;;;19.05;73.62
11347;BME280;5728;42.722;23.258;2023-08-31T01:07:00;94268.03;;;19.52;72.38
11347;BME280;5728;42.722;23.258;2023-08-31T01:09:36;94269.50;;;19.42;72.57
11347;BME280;5728;42.722;23.258;2023-08-31T01:12:07;94256.34;;;19.42;73.01
11347;BME280;5728;42.722;23.258;2023-08-31T01:14:39;94264.34;;;19.41;72.48
11347;BME280;5728;42.722;23.258;2023-08-31T01:17:09;94260.41;;;19.48;72.52
11347;BME280;5728;42.722;23.258;2023-08-31T01:19:47;94261.84;;;19.53;72.33
11347;BME280;5728;42.722;23.258;2023-08-31T01:22:29;94268.28;;;19.63;71.29
11347;BME280;5728;42.722;23.258;2023-08-31T01:24:59;94263.22;;;19.29;72.72
11347;BME280;5728;42.722;23.258;2023-08-31T01:27:30;94269.41;;;19.44;72.08
11347;BME280;5728;42.722;23.258;2023-08-31T01:29:57;94265.63;;;19.63;71.88
11347;BME280;5728;42.722;23.258;2023-08-31T01:32:24;94269.31;;;19.75;71.20
11347;BME280;5728;42.722;23.258;2023-08-31T01:34:51;94261.38;;;19.91;70.48
11347;BME280;5728;42.722;23.258;2023-08-31T01:37:27;94262.53;;;20.01;69.75
11347;BME280;5728;42.722;23.258;2023-08-31T01:39:56;94267.75;;;19.87;69.98
11347;BME280;5728;42.722;23.258;2023-08-31T01:42:27;94263.38;;;19.71;70.65
11347;BME280;5728;42.722;23.258;2023-08-31T01:44:56;94263.13;;;19.76;70.27
11347;BME280;5728;42.722;23.258;2023-08-31T01:47:23;94265.22;;;19.99;70.27
11347;BME280;5728;42.722;23.258;2023-08-31T01:49:51;94272.31;;;19.99;69.81
11347;BME280;5728;42.722;23.258;2023-08-31T01:52:17;94274.84;;;20.00;69.45
11347;BME280;5728;42.722;23.258;2023-08-31T01:54:44;94270.59;;;20.12;69.20
11347;BME280;5728;42.722;23.258;2023-08-31T01:57:11;94264.69;;;20.22;68.77
11347;BME280;5728;42.722;23.258;2023-08-31T01:59:40;94269.31;;;20.19;68.24
11347;BME280;5728;42.722;23.258;2023-08-31T02:02:06;94267.63;;;20.18;68.26
11347;BME280;5728;42.722;23.258;2023-08-31T02:04:33;94272.34;;;20.27;68.58
11347;BME280;5728;42.722;23.258;2023-08-31T02:07:00;94283.84;;;20.26;68.00
11347;BME280;5728;42.722;23.258;2023-08-31T02:09:27;94292.50;;;19.98;68.81
11347;BME280;5728;42.722;23.258;2023-08-31T02:11:53;94285.97;;;19.76;69.83
11347;BME280;5728;42.722;23.258;2023-08-31T02:14:20;94293.47;;;19.36;71.04
11347;BME280;5728;42.722;23.258;2023-08-31T02:16:49;94285.53;;;19.38;71.48
11347;BME280;5728;42.722;23.258;2023-08-31T02:19:16;94282.75;;;19.41;70.98
11347;BME280;5728;42.722;23.258;2023-08-31T02:21:42;94279.44;;;19.37;71.69
11347;BME280;5728;42.722;23.258;2023-08-31T02:24:09;94289.28;;;19.18;71.60
11347;BME280;5728;42.722;23.258;2023-08-31T02:26:36;94285.53;;;19.06;71.94
11347;BME280;5728;42.722;23.258;2023-08-31T02:29:03;94274.53;;;19.00;72.47
11347;BME280;5728;42.722;23.258;2023-08-31T02:31:30;94273.19;;;18.93;72.24
11347;BME280;5728;42.722;23.258;2023-08-31T02:33:58;94266.47;;;19.03;72.67
11347;BME280;5728;42.722;23.258;2023-08-31T02:36:25;94274.38;;;19.03;71.51
11347;BME280;5728;42.722;23.258;2023-08-31T02:38:52;94282.31;;;18.86;72.63
11347;BME280;5728;42.722;23.258;2023-08-31T02:41:18;94275.44;;;18.99;71.83
11347;BME280;5728;42.722;23.258;2023-08-31T02:43:45;94271.16;;;18.98;71.57
11347;BME280;5728;42.722;23.258;2023-08-31T02:46:12;94279.09;;;18.96;71.52
11347;BME280;5728;42.722;23.258;2023-08-31T02:48:39;94270.13;;;19.00;70.89
11347;BME280;5728;42.722;23.258;2023-08-31T02:51:07;94282.22;;;19.19;70.06
11347;BME280;5728;42.722;23.258;2023-08-31T02:53:34;94271.81;;;19.01;69.98
11347;BME280;5728;42.722;23.258;2023-08-31T02:56:01;94289.78;;;19.09;69.73
11347;BME280;5728;42.722;23.258;2023-08-31T02:58:28;94296.72;;;19.26;69.00
11347;BME280;5728;42.722;23.258;2023-08-31T03:00:55;94296.56;;;19.13;69.26
11347;BME280;5728;42.722;23.258;2023-08-31T03:03:32;94303.66;;;19.11;68.95
11347;BME280;5728;42.722;23.258;2023-08-31T03:05:59;94298.25;;;19.14;68.71
11347;BME280;5728;42.722;23.258;2023-08-31T03:08:27;94299.69;;;19.20;68.93
11347;BME280;5728;42.722;23.258;2023-08-31T03:10:56;94298.56;;;19.24;67.92
11347;BME280;5728;42.722;23.258;2023-08-31T03:13:23;94299.75;;;19.34;68.02
11347;BME280;5728;42.722;23.258;2023-08-31T03:15:50;94300.97;;;19.28;67.64
11347;BME280;5728;42.722;23.258;2023-08-31T03:18:16;94301.34;;;19.36;67.20
11347;BME280;5728;42.722;23.258;2023-08-31T03:20:43;94304.94;;;19.35;67.01
11347;BME280;5728;42.722;23.258;2023-08-31T03:23:10;94304.19;;;19.33;67.43
11347;BME280;5728;42.722;23.258;2023-08-31T03:25:38;94291.72;;;19.52;66.65
11347;BME280;5728;42.722;23.258;2023-08-31T03:28:05;94306.91;;;19.47;68.07
11347;BME280;5728;42.722;23.258;2023-08-31T03:30:32;94312.41;;;18.96;70.51
11347;BME280;5728;42.722;23.258;2023-08-31T03:32:58;94308.56;;;18.86;71.01
11347;BME280;5728;42.722;23.258;2023-08-31T03:35:25;94309.38;;;18.88;71.28
11347;BME280;5728;42.722;23.258;2023-08-31T03:37:54;94309.00;;;18.78;71.55
11347;BME280;5728;42.722;23.258;2023-08-31T03:40:21;94312.34;;;18.97;71.58
11347;BME280;5728;42.722;23.258;2023-08-31T03:42:49;94324.28;;;19.03;70.88
11347;BME280;5728;42.722;23.258;2023-08-31T03:45:16;94328.41;;;18.76;72.04
11347;BME280;5728;42.722;23.258;2023-08-31T03:47:43;94311.97;;;18.72;72.16
11347;BME280;5728;42.722;23.258;2023-08-31T03:50:10;94323.19;;;19.07;72.30
11347;BME280;5728;42.722;23.258;2023-08-31T03:52:37;94321.66;;;19.03;71.40
11347;BME280;5728;42.722;23.258;2023-08-31T03:55:04;94329.13;;;18.95;71.62
11347;BME280;5728;42.722;23.258;2023-08-31T03:57:31;94333.56;;;18.62;73.42
11347;BME280;5728;42.722;23.258;2023-08-31T03:59:59;94330.19;;;18.91;72.87
11347;BME280;5728;42.722;23.258;2023-08-31T04:02:26;94334.53;;;18.92;73.72
11347;BME280;5728;42.722;23.258;2023-08-31T04:04:52;94352.53;;;19.15;73.06
11347;BME280;5728;42.722;23.258;2023-08-31T04:07:19;94352.53;;;19.31;72.52
11347;BME280;5728;42.722;23.258;2023-08-31T04:09:46;94362.88;;;19.49;72.04
11347;BME280;5728;42.722;23.258;2023-08-31T04:12:13;94368.81;;;19.68;70.35
11347;BME280;5728;42.722;23.258;2023-08-31T04:14:39;94374.56;;;19.59;69.82
11347;BME280;5728;42.722;23.258;2023-08-31T04:17:08;94375.59;;;19.41;71.08
11347;BME280;5728;42.722;23.258;2023-08-31T04:19:34;94385.50;;;19.36;71.24
11347;BME280;5728;42.722;23.258;2023-08-31T04:22:02;94380.78;;;19.43;71.29
11347;BME280;5728;42.722;23.258;2023-08-31T04:24:30;94382.91;;;19.67;70.15
11347;BME280;5728;42.722;23.258;2023-08-31T04:26:56;94380.09;;;19.55;70.92
11347;BME280;5728;42.722;23.258;2023-08-31T04:29:23;94387.63;;;19.77;71.57
11347;BME280;5728;42.722;23.258;2023-08-31T04:31:50;94386.81;;;20.06;69.66
11347;BME280;5728;42.722;23.258;2023-08-31T04:34:18;94382.13;;;20.11;69.84
11347;BME280;5728;42.722;23.258;2023-08-31T04:36:45;94390.22;;;20.38;67.97
11347;BME280;5728;42.722;23.258;2023-08-31T04:39:12;94398.50;;;20.46;69.01
11347;BME280;5728;42.722;23.258;2023-08-31T04:41:38;94394.31;;;20.71;67.35
11347;BME280;5728;42.722;23.258;2023-08-31T04:44:05;94399.59;;;20.71;67.72
11347;BME280;5728;42.722;23.258;2023-08-31T04:46:32;94400.16;;;20.76;67.50
11347;BME280;5728;42.722;23.258;2023-08-31T04:48:59;94399.84;;;20.53;67.40
11347;BME280;5728;42.722;23.258;2023-08-31T04:51:32;94404.06;;;20.55;67.69
11347;BME280;5728;42.722;23.258;2023-08-31T04:53:59;94400.81;;;20.66;66.97
11347;BME280;5728;42.722;23.258;2023-08-31T04:56:29;94406.56;;;20.86;67.31
11347;BME280;5728;42.722;23.258;2023-08-31T04:58:56;94403.75;;;21.04;66.05
11347;BME280;5728;42.722;23.258;2023-08-31T05:01:23;94398.75;;;21.27;65.68
11347;BME280;5728;42.722;23.258;2023-08-31T05:03:50;94401.69;;;21.37;64.63
11347;BME280;5728;42.722;23.258;2023-08-31T05:06:17;94403.00;;;21.30;64.02
11347;BME280;5728;42.722;23.258;2023-08-31T05:08:45;94406.78;;;21.26;64.99
11347;BME280;5728;42.722;23.258;2023-08-31T05:11:11;94411.28;;;20.95;65.54
11347;BME280;5728;42.722;23.258;2023-08-31T05:13:38;94410.72;;;20.76;66.50
11347;BME280;5728;42.722;23.258;2023-08-31T05:16:07;94413.94;;;21.10;65.01
11347;BME280;5728;42.722;23.258;2023-08-31T05:18:34;94405.25;;;20.93;65.49
11347;BME280;5728;42.722;23.258;2023-08-31T05:21:01;94419.25;;;20.80;65.58
11347;BME280;5728;42.722;23.258;2023-08-31T05:23:28;94412.00;;;20.69;66.68
11347;BME280;5728;42.722;23.258;2023-08-31T05:25:57;94421.06;;;20.93;64.80
11347;BME280;5728;42.722;23.258;2023-08-31T05:28:23;94417.78;;;21.04;64.76
11347;BME280;5728;42.722;23.258;2023-08-31T05:30:51;94414.41;;;21.30;64.19
11347;BME280;5728;42.722;23.258;2023-08-31T05:33:18;94415.66;;;21.66;63.26
11347;BME280;5728;42.722;23.258;2023-08-31T05:35:45;94403.25;;;21.80;61.15
11347;BME280;5728;42.722;23.258;2023-08-31T05:38:11;94403.81;;;21.99;59.67
11347;BME280;5728;42.722;23.258;2023-08-31T05:40:38;94404.72;;;22.12;58.88
11347;BME280;5728;42.722;23.258;2023-08-31T05:43:08;94403.16;;;22.22;61.98
11347;BME280;5728;42.722;23.258;2023-08-31T05:45:35;94413.88;;;22.59;58.17
11347;BME280;5728;42.722;23.258;2023-08-31T05:48:02;94401.91;;;22.93;61.94
11347;BME280;5728;42.722;23.258;2023-08-31T05:50:30;94398.06;;;23.09;60.80
11347;BME280;5728;42.722;23.258;2023-08-31T05:52:57;94404.63;;;23.41;59.05
11347;BME280;5728;42.722;23.258;2023-08-31T05:55:24;94408.84;;;23.44;55.14
11347;BME280;5728;42.722;23.258;2023-08-31T05:57:51;94412.91;;;23.37;55.44
11347;BME280;5728;42.722;23.258;2023-08-31T06:00:19;94408.19;;;23.66;55.13
11347;BME280;5728;42.722;23.258;2023-08-31T06:02:46;94417.59;;;24.06;56.04
11347;BME280;5728;42.722;23.258;2023-08-31T06:05:13;94406.34;;;24.15;54.34
11347;BME280;5728;42.722;23.258;2023-08-31T06:07:41;94417.34;;;24.22;54.39
11347;BME280;5728;42.722;23.258;2023-08-31T06:10:09;94416.81;;;24.40;53.78
11347;BME280;5728;42.722;23.258;2023-08-31T06:12:36;94433.50;;;24.53;53.33
11347;BME280;5728;42.722;23.258;2023-08-31T06:15:03;94420.03;;;24.67;53.63
11347;BME280;5728;42.722;23.258;2023-08-31T06:17:32;94427.03;;;24.68;53.50
11347;BME280;5728;42.722;23.258;2023-08-31T06:20:00;94433.56;;;24.75;53.84
11347;BME280;5728;42.722;23.258;2023-08-31T06:22:27;94433.41;;;25.01;52.79
11347;BME280;5728;42.722;23.258;2023-08-31T06:24:54;94439.13;;;25.07;52.46
11347;BME280;5728;42.722;23.258;2023-08-31T06:27:20;94444.16;;;24.99;52.53
11347;BME280;5728;42.722;23.258;2023-08-31T06:29:47;94439.66;;;24.89;52.38
11347;BME280;5728;42.722;23.258;2023-08-31T06:32:16;94448.13;;;24.94;52.64
11347;BME280;5728;42.722;23.258;2023-08-31T06:34:44;94452.28;;;25.20;52.15
11347;BME280;5728;42.722;23.258;2023-08-31T06:37:10;94454.75;;;25.45;50.14
11347;BME280;5728;42.722;23.258;2023-08-31T06:39:37;94459.53;;;25.40;49.59
11347;BME280;5728;42.722;23.258;2023-08-31T06:42:04;94463.91;;;25.63;49.57
11347;BME280;5728;42.722;23.258;2023-08-31T06:44:31;94460.31;;;25.64;49.09
11347;BME280;5728;42.722;23.258;2023-08-31T06:46:58;94460.19;;;25.55;49.08
11347;BME280;5728;42.722;23.258;2023-08-31T06:49:24;94468.63;;;25.60;48.52
11347;BME280;5728;42.722;23.258;2023-08-31T06:51:54;94473.66;;;25.96;47.98
11347;BME280;5728;42.722;23.258;2023-08-31T06:54:20;94460.38;;;26.18;46.83
11347;BME280;5728;42.722;23.258;2023-08-31T06:56:47;94465.59;;;26.20;46.28
11347;BME280;5728;42.722;23.258;2023-08-31T06:59:14;94464.03;;;26.49;46.22
11347;BME280;5728;42.722;23.258;2023-08-31T07:01:41;94475.84;;;26.56;44.81
11347;BME280;5728;42.722;23.258;2023-08-31T07:04:07;94470.22;;;26.81;44.27
11347;BME280;5728;42.722;23.258;2023-08-31T07:06:35;94470.13;;;26.40;44.66
11347;BME280;5728;42.722;23.258;2023-08-31T07:09:03;94467.00;;;26.35;44.04
11347;BME280;5728;42.722;23.258;2023-08-31T07:11:31;94476.63;;;26.47;44.52
11347;BME280;5728;42.722;23.258;2023-08-31T07:13:58;94471.25;;;26.26;45.11
11347;BME280;5728;42.722;23.258;2023-08-31T07:16:25;94473.53;;;26.09;44.85
11347;BME280;5728;42.722;23.258;2023-08-31T07:18:51;94473.53;;;26.31;44.94
11347;BME280;5728;42.722;23.258;2023-08-31T07:21:18;94475.84;;;26.67;45.05
11347;BME280;5728;42.722;23.258;2023-08-31T07:23:45;94479.53;;;26.87;43.99
11347;BME280;5728;42.722;23.258;2023-08-31T07:26:13;94474.75;;;26.58;43.97
11347;BME280;5728;42.722;23.258;2023-08-31T07:28:41;94475.09;;;26.76;43.98
11347;BME280;5728;42.722;23.258;2023-08-31T07:31:08;94478.59;;;27.08;44.09
11347;BME280;5728;42.722;23.258;2023-08-31T07:33:34;94488.97;;;27.11;43.51
11347;BME280;5728;42.722;23.258;2023-08-31T07:36:02;94477.19;;;27.14;43.88
11347;BME280;5728;42.722;23.258;2023-08-31T07:38:30;94488.25;;;27.30;42.90
11347;BME280;5728;42.722;23.258;2023-08-31T07:40:57;94479.72;;;27.77;42.13
11347;BME280;5728;42.722;23.258;2023-08-31T07:43:27;94480.81;;;27.45;42.66
11347;BME280;5728;42.722;23.258;2023-08-31T07:45:53;94480.53;;;27.27;42.05
11347;BME280;5728;42.722;23.258;2023-08-31T07:48:20;94487.13;;;27.44;41.45
11347;BME280;5728;42.722;23.258;2023-08-31T07:50:47;94485.19;;;27.76;42.39
11347;BME280;5728;42.722;23.258;2023-08-31T07:53:14;94484.75;;;27.30;42.32
11347;BME280;5728;42.722;23.258;2023-08-31T07:55:50;94488.84;;;27.34;43.75
11347;BME280;5728;42.722;23.258;2023-08-31T07:58:19;94493.63;;;27.81;41.27
11347;BME280;5728;42.722;23.258;2023-08-31T08:00:47;94487.50;;;28.30;40.38
11347;BME280;5728;42.722;23.258;2023-08-31T08:03:14;94492.63;;;27.10;42.09
11347;BME280;5728;42.722;23.258;2023-08-31T08:05:41;94487.50;;;27.18;43.04
11347;BME280;5728;42.722;23.258;2023-08-31T08:08:08;94492.91;;;27.79;42.25
11347;BME280;5728;42.722;23.258;2023-08-31T08:10:35;94483.59;;;28.24;40.47
11347;BME280;5728;42.722;23.258;2023-08-31T08:13:02;94483.72;;;28.32;38.73
11347;BME280;5728;42.722;23.258;2023-08-31T08:15:29;94490.81;;;27.82;40.06
11347;BME280;5728;42.722;23.258;2023-08-31T08:17:57;94493.72;;;27.49;40.24
11347;BME280;5728;42.722;23.258;2023-08-31T08:20:24;94489.47;;;27.98;40.37
11347;BME280;5728;42.722;23.258;2023-08-31T08:22:51;94488.50;;;27.27;39.00
11347;BME280;5728;42.722;23.258;2023-08-31T08:25:18;94488.69;;;27.46;40.15
11347;BME280;5728;42.722;23.258;2023-08-31T08:27:45;94484.94;;;27.79;38.25
11347;BME280;5728;42.722;23.258;2023-08-31T08:30:12;94483.00;;;27.40;38.31
11347;BME280;5728;42.722;23.258;2023-08-31T08:32:39;94486.69;;;27.28;36.82
11347;BME280;5728;42.722;23.258;2023-08-31T08:35:08;94480.22;;;27.20;36.39
11347;BME280;5728;42.722;23.258;2023-08-31T08:37:35;94494.44;;;27.31;36.83
11347;BME280;5728;42.722;23.258;2023-08-31T08:40:02;94483.63;;;26.91;41.27
11347;BME280;5728;42.722;23.258;2023-08-31T08:42:30;94496.03;;;27.54;40.94
11347;BME280;5728;42.722;23.258;2023-08-31T08:44:57;94487.38;;;28.22;40.43
11347;BME280;5728;42.722;23.258;2023-08-31T08:47:25;94488.59;;;28.18;39.99
11347;BME280;5728;42.722;23.258;2023-08-31T08:49:53;94489.19;;;27.91;37.93
11347;BME280;5728;42.722;23.258;2023-08-31T08:52:21;94494.28;;;27.73;35.46
11347;BME280;5728;42.722;23.258;2023-08-31T08:54:49;94493.00;;;27.68;35.14
11347;BME280;5728;42.722;23.258;2023-08-31T08:57:16;94480.50;;;27.99;36.15
11347;BME280;5728;42.722;23.258;2023-08-31T08:59:43;94485.16;;;28.36;34.34
11347;BME280;5728;42.722;23.258;2023-08-31T09:02:10;94505.06;;;28.32;34.39
11347;BME280;5728;42.722;23.258;2023-08-31T09:04:37;94481.72;;;28.65;34.12
11347;BME280;5728;42.722;23.258;2023-08-31T09:07:04;94484.31;;;28.45;34.75
11347;BME280;5728;42.722;23.258;2023-08-31T09:09:47;94479.06;;;28.65;33.49
11347;BME280;5728;42.722;23.258;2023-08-31T09:12:14;94481.19;;;27.61;35.48
11347;BME280;5728;42.722;23.258;2023-08-31T09:14:41;94489.63;;;27.66;36.01
11347;BME280;5728;42.722;23.258;2023-08-31T09:17:08;94480.78;;;28.35;35.92
11347;BME280;5728;42.722;23.258;2023-08-31T09:19:35;94477.94;;;28.96;33.64
11347;BME280;5728;42.722;23.258;2023-08-31T09:22:02;94469.38;;;28.92;33.43
11347;BME280;5728;42.722;23.258;2023-08-31T09:24:29;94492.28;;;29.04;33.52
11347;BME280;5728;42.722;23.258;2023-08-31T09:27:07;94477.25;;;28.25;33.16
11347;BME280;5728;42.722;23.258;2023-08-31T09:29:37;94484.97;;;27.89;34.63
11347;BME280;5728;42.722;23.258;2023-08-31T09:32:05;94491.66;;;27.83;34.81
11347;BME280;5728;42.722;23.258;2023-08-31T09:34:36;94499.38;;;27.56;34.23
11347;BME280;5728;42.722;23.258;2023-08-31T09:37:06;94495.34;;;27.61;34.18
11347;BME280;5728;42.722;23.258;2023-08-31T09:39:35;94486.88;;;28.07;33.91
11347;BME280;5728;42.722;23.258;2023-08-31T09:42:03;94480.19;;;27.62;34.34
11347;BME280;5728;42.722;23.258;2023-08-31T09:44:31;94476.28;;;28.26;33.61
11347;BME280;5728;42.722;23.258;2023-08-31T09:46:58;94473.53;;;28.07;31.48
11347;BME280;5728;42.722;23.258;2023-08-31T09:49:26;94476.47;;;28.44;31.83
11347;BME280;5728;42.722;23.258;2023-08-31T09:51:53;94481.72;;;28.15;32.90
11347;BME280;5728;42.722;23.258;2023-08-31T09:54:21;94476.97;;;28.28;32.61
11347;BME280;5728;42.722;23.258;2023-08-31T09:56:49;94481.97;;;27.82;34.27
11347;BME280;5728;42.722;23.258;2023-08-31T09:59:16;94475.44;;;28.35;33.10
11347;BME280;5728;42.722;23.258;2023-08-31T10:01:45;94472.19;;;28.72;32.14
11347;BME280;5728;42.722;23.258;2023-08-31T10:04:13;94470.47;;;28.71;31.35
11347;BME280;5728;42.722;23.258;2023-08-31T10:06:40;94475.84;;;29.38;31.37
11347;BME280;5728;42.722;23.258;2023-08-31T10:09:08;94463.59;;;29.16;29.46
11347;BME280;5728;42.722;23.258;2023-08-31T10:11:38;94471.19;;;29.40;30.04
11347;BME280;5728;42.722;23.258;2023-08-31T10:14:05;94474.16;;;29.27;29.73
11347;BME280;5728;42.722;23.258;2023-08-31T10:16:32;94480.31;;;29.18;31.05
11347;BME280;5728;42.722;23.258;2023-08-31T10:19:02;94471.47;;;29.08;30.93
11347;BME280;5728;42.722;23.258;2023-08-31T10:21:29;94472.56;;;29.44;30.99
11347;BME280;5728;42.722;23.258;2023-08-31T10:23:56;94465.16;;;28.99;30.96
11347;BME280;5728;42.722;23.258;2023-08-31T10:26:23;94464.72;;;29.23;31.28
11347;BME280;5728;42.722;23.258;2023-08-31T10:28:51;94467.44;;;29.69;31.03
11347;BME280;5728;42.722;23.258;2023-08-31T10:31:19;94475.84;;;29.09;31.10
11347;BME280;5728;42.722;23.258;2023-08-31T10:33:46;94478.50;;;28.71;32.44
11347;BME280;5728;42.722;23.258;2023-08-31T10:36:16;94485.41;;;27.94;33.61
11347;BME280;5728;42.722;23.258;2023-08-31T10:38:45;94479.28;;;27.72;35.06
11347;BME280;5728;42.722;23.258;2023-08-31T10:41:20;94486.84;;;27.77;34.69
11347;BME280;5728;42.722;23.258;2023-08-31T10:43:51;94489.81;;;27.74;35.09
11347;BME280;5728;42.722;23.258;2023-08-31T10:46:25;94489.63;;;27.96;34.06
11347;BME280;5728;42.722;23.258;2023-08-31T10:48:55;94488.72;;;27.35;35.26
11347;BME280;5728;42.722;23.258;2023-08-31T10:51:25;94488.69;;;27.46;35.39
11347;BME280;5728;42.722;23.258;2023-08-31T10:53:53;94488.53;;;27.48;35.09
11347;BME280;5728;42.722;23.258;2023-08-31T10:56:30;94487.31;;;27.82;34.48
11347;BME280;5728;42.722;23.258;2023-08-31T10:58:58;94489.16;;;28.12;34.20
11347;BME280;5728;42.722;23.258;2023-08-31T11:01:55;94486.06;;;28.66;33.29
11347;BME280;5728;42.722;23.258;2023-08-31T11:04:23;94489.19;;;29.47;32.84
11347;BME280;5728;42.722;23.258;2023-08-31T11:07:12;94487.16;;;30.15;31.21
11347;BME280;5728;42.722;23.258;2023-08-31T11:09:39;94496.03;;;30.70;30.64
11347;BME280;5728;42.722;23.258;2023-08-31T11:12:07;94502.41;;;30.05;30.77
11347;BME280;5728;42.722;23.258;2023-08-31T11:14:34;94496.81;;;29.98;31.44
11347;BME280;5728;42.722;23.258;2023-08-31T11:17:01;94498.03;;;30.04;31.33
11347;BME280;5728;42.722;23.258;2023-08-31T11:19:30;94493.97;;;30.64;31.64
11347;BME280;5728;42.722;23.258;2023-08-31T11:21:58;94499.34;;;31.52;30.38
11347;BME280;5728;42.722;23.258;2023-08-31T11:24:26;94496.59;;;31.44;29.26
11347;BME280;5728;42.722;23.258;2023-08-31T11:26:53;94494.03;;;30.72;30.31
11347;BME280;5728;42.722;23.258;2023-08-31T11:29:20;94495.66;;;30.38;31.44
11347;BME280;5728;42.722;23.258;2023-08-31T11:31:47;94490.28;;;28.78;34.79
11347;BME280;5728;42.722;23.258;2023-08-31T11:34:14;94501.19;;;28.06;36.13
11347;BME280;5728;42.722;23.258;2023-08-31T11:36:41;94495.59;;;28.09;36.21
11347;BME280;5728;42.722;23.258;2023-08-31T11:39:09;94487.22;;;28.23;37.10
11347;BME280;5728;42.722;23.258;2023-08-31T11:41:37;94499.59;;;29.12;35.66
11347;BME280;5728;42.722;23.258;2023-08-31T11:44:07;94497.00;;;29.58;34.34
11347;BME280;5728;42.722;23.258;2023-08-31T11:46:34;94495.56;;;29.73;34.03
11347;BME280;5728;42.722;23.258;2023-08-31T11:49:02;94508.38;;;30.26;33.48
11347;BME280;5728;42.722;23.258;2023-08-31T11:51:30;94492.00;;;29.36;34.00
11347;BME280;5728;42.722;23.258;2023-08-31T11:53:58;94490.31;;;30.38;32.74
11347;BME280;5728;42.722;23.258;2023-08-31T11:56:25;94479.59;;;30.38;32.38
11347;BME280;5728;42.722;23.258;2023-08-31T11:58:55;94485.09;;;29.43;33.83
11347;BME280;5728;42.722;23.258;2023-08-31T12:01:22;94478.41;;;29.76;33.18
11347;BME280;5728;42.722;23.258;2023-08-31T12:03:49;94479.47;;;31.02;31.70
11347;BME280;5728;42.722;23.258;2023-08-31T12:06:17;94477.91;;;31.52;31.29
11347;BME280;5728;42.722;23.258;2023-08-31T12:08:44;94477.47;;;31.39;31.44
11347;BME280;5728;42.722;23.258;2023-08-31T12:11:11;94484.00;;;31.19;30.65
11347;BME280;5728;42.722;23.258;2023-08-31T12:13:38;94472.84;;;30.61;31.35
11347;BME280;5728;42.722;23.258;2023-08-31T12:16:12;94479.91;;;29.32;34.00
11347;BME280;5728;42.722;23.258;2023-08-31T12:18:39;94471.59;;;30.28;32.84
11347;BME280;5728;42.722;23.258;2023-08-31T12:21:06;94474.06;;;30.12;32.60
11347;BME280;5728;42.722;23.258;2023-08-31T12:23:33;94468.03;;;29.63;33.29
11347;BME280;5728;42.722;23.258;2023-08-31T12:26:00;94462.56;;;30.02;32.82
11347;BME280;5728;42.722;23.258;2023-08-31T12:28:28;94462.84;;;30.08;32.71
11347;BME280;5728;42.722;23.258;2023-08-31T12:30:55;94457.75;;;30.60;32.15
11347;BME280;5728;42.722;23.258;2023-08-31T12:33:24;94464.59;;;29.34;32.84
11347;BME280;5728;42.722;23.258;2023-08-31T12:35:51;94465.47;;;29.71;32.60
11347;BME280;5728;42.722;23.258;2023-08-31T12:38:18;94467.38;;;29.98;31.72
11347;BME280;5728;42.722;23.258;2023-08-31T12:40:45;94464.28;;;30.03;31.40
11347;BME280;5728;42.722;23.258;2023-08-31T12:43:12;94470.69;;;30.91;30.47
11347;BME280;5728;42.722;23.258;2023-08-31T12:45:39;94463.34;;;31.37;29.25
11347;BME280;5728;42.722;23.258;2023-08-31T12:48:06;94457.06;;;30.40;30.80
11347;BME280;5728;42.722;23.258;2023-08-31T12:50:34;94466.88;;;31.55;29.94
11347;BME280;5728;42.722;23.258;2023-08-31T12:53:01;94462.66;;;31.78;29.46
11347;BME280;5728;42.722;23.258;2023-08-31T12:55:28;94463.31;;;32.32;28.96
11347;BME280;5728;42.722;23.258;2023-08-31T12:57:56;94462.66;;;32.88;28.25
11347;BME280;5728;42.722;23.258;2023-08-31T13:00:23;94460.03;;;33.36;27.03
11347;BME280;5728;42.722;23.258;2023-08-31T13:02:50;94457.69;;;33.17;28.17